createdAt,value
2019-01-19T00:01:22.441Z,15.37
2019-01-19T00:04:03.393Z,14.60
2019-01-19T00:06:44.110Z,14.47
2019-01-19T00:09:24.722Z,13.97
2019-01-19T00:12:06.115Z,14.23
2019-01-19T00:14:46.595Z,14.03
2019-01-19T00:17:27.493Z,15.30
2019-01-19T00:20:07.931Z,13.57
2019-01-19T00:22:49.385Z,14.40
2019-01-19T00:25:30.378Z,14.53
2019-01-19T00:28:11.269Z,13.97
2019-01-19T00:30:52.630Z,13.67
2019-01-19T00:33:33.491Z,13.60
2019-01-19T00:36:14.175Z,13.63
2019-01-19T00:38:54.971Z,12.63
2019-01-19T00:41:35.643Z,14.40
2019-01-19T00:44:16.546Z,12.50
2019-01-19T00:46:57.933Z,12.70
2019-01-19T00:49:38.729Z,13.83
2019-01-19T00:52:20.027Z,12.60
2019-01-19T00:55:01.031Z,12.63
2019-01-19T00:57:41.509Z,12.03
2019-01-19T01:00:22.259Z,13.30
2019-01-19T01:03:02.796Z,13.53
2019-01-19T01:05:44.101Z,13.63
2019-01-19T01:08:24.933Z,13.33
2019-01-19T01:11:06.225Z,13.93
2019-01-19T01:13:47.531Z,13.10
2019-01-19T01:16:28.265Z,13.70
2019-01-19T01:19:09.109Z,13.63
2019-01-19T01:21:49.839Z,13.33
2019-01-19T01:24:30.559Z,12.93
2019-01-19T01:27:31.901Z,13.13
2019-01-19T01:30:39.276Z,11.77
2019-01-19T01:33:20.627Z,12.23
2019-01-19T01:36:01.936Z,14.07
2019-01-19T01:38:42.607Z,12.50
2019-01-19T01:41:28.424Z,13.53
2019-01-19T01:44:09.665Z,13.17
2019-01-19T01:46:50.469Z,13.63
2019-01-19T01:49:31.390Z,13.77
2019-01-19T01:52:12.178Z,13.00
2019-01-19T01:55:10.458Z,13.13
2019-01-19T01:58:02.223Z,11.83
2019-01-19T02:00:42.754Z,12.93
2019-01-19T02:03:23.280Z,13.33
2019-01-19T02:06:04.222Z,12.97
2019-01-19T02:08:49.650Z,12.63
2019-01-19T02:11:30.754Z,12.80
2019-01-19T02:14:11.543Z,13.23
2019-01-19T02:16:52.528Z,12.33
2019-01-19T02:19:33.800Z,11.80
2019-01-19T02:22:16.513Z,12.53
2019-01-19T02:24:57.562Z,11.63
2019-01-19T02:27:38.393Z,12.67
2019-01-19T02:30:19.025Z,11.33
2019-01-19T02:32:59.785Z,11.93
2019-01-19T02:35:48.159Z,11.67
2019-01-19T02:38:22.987Z,10.30
2019-01-19T02:41:03.854Z,10.30
2019-01-19T02:43:44.411Z,11.20
2019-01-19T02:46:25.236Z,10.67
2019-01-19T02:49:05.798Z,11.23
2019-01-19T02:51:46.621Z,10.27
2019-01-19T02:54:27.857Z,10.60
2019-01-19T02:57:08.435Z,10.77
2019-01-19T03:02:47.771Z,10.73
2019-01-19T03:05:28.982Z,10.30
2019-01-19T03:08:10.031Z,10.30
2019-01-19T03:10:50.662Z,10.93
2019-01-19T03:13:31.470Z,10.63
2019-01-19T03:16:11.981Z,9.77
2019-01-19T03:18:52.661Z,9.47
2019-01-19T03:21:33.411Z,10.40
2019-01-19T03:24:14.610Z,10.70
2019-01-19T03:26:55.099Z,10.60
2019-01-19T03:29:36.343Z,9.60
2019-01-19T03:32:18.000Z,10.03
2019-01-19T03:38:47.468Z,8.57
2019-01-19T03:41:29.112Z,9.00
2019-01-19T03:44:10.475Z,10.30
2019-01-19T03:46:51.195Z,9.33
2019-01-19T03:56:01.659Z,9.77
2019-01-19T03:58:42.428Z,8.93
2019-01-19T04:01:23.218Z,9.53
2019-01-19T04:04:04.422Z,8.93
2019-01-19T04:06:45.093Z,9.60
2019-01-19T04:09:26.332Z,9.83
2019-01-19T04:12:40.447Z,8.60
2019-01-19T04:15:47.894Z,8.93
2019-01-19T04:19:01.292Z,7.87
2019-01-19T04:22:01.318Z,8.90
2019-01-19T04:24:42.464Z,8.93
2019-01-19T04:27:23.740Z,8.03
2019-01-19T04:30:04.723Z,8.00
2019-01-19T04:32:45.385Z,8.10
2019-01-19T04:35:26.438Z,8.43
2019-01-19T04:38:07.831Z,8.90
2019-01-19T04:40:48.362Z,8.20
2019-01-19T04:43:29.666Z,8.17
2019-01-19T04:46:12.291Z,8.13
2019-01-19T04:48:53.017Z,8.80
2019-01-19T04:51:33.797Z,8.40
2019-01-19T04:54:15.102Z,8.63
2019-01-19T04:56:54.471Z,8.17
2019-01-19T04:59:42.837Z,8.90
2019-01-19T05:02:24.186Z,8.67
2019-01-19T05:05:04.595Z,8.17
2019-01-19T05:07:45.442Z,8.83
2019-01-19T05:10:26.539Z,8.47
2019-01-19T05:13:07.308Z,8.60
2019-01-19T05:15:48.218Z,8.57
2019-01-19T05:18:29.667Z,7.50
2019-01-19T05:21:10.571Z,7.57
2019-01-19T05:23:51.027Z,8.67
2019-01-19T05:26:39.328Z,7.80
2019-01-19T05:29:19.961Z,7.03
2019-01-19T05:32:00.548Z,8.47
2019-01-19T05:34:40.019Z,7.90
2019-01-19T05:37:20.494Z,7.20
2019-01-19T05:40:01.824Z,7.17
2019-01-19T05:42:42.883Z,7.47
2019-01-19T05:45:23.905Z,7.23
2019-01-19T05:48:04.692Z,7.13
2019-01-19T05:50:45.425Z,7.53
2019-01-19T05:53:25.971Z,7.20
2019-01-19T05:56:06.913Z,7.03
2019-01-19T05:58:48.265Z,6.87
2019-01-19T06:01:29.990Z,7.87
2019-01-19T06:04:11.077Z,7.60
2019-01-19T06:06:51.737Z,7.50
2019-01-19T06:09:32.442Z,8.13
2019-01-19T06:12:13.445Z,8.07
2019-01-19T06:14:54.173Z,7.90
2019-01-19T06:17:34.891Z,7.17
2019-01-19T06:20:16.603Z,6.73
2019-01-19T06:22:57.634Z,6.87
2019-01-19T06:25:38.957Z,7.73
2019-01-19T06:28:19.999Z,7.30
2019-01-19T06:31:00.968Z,7.40
2019-01-19T06:33:41.713Z,7.40
2019-01-19T06:36:22.565Z,6.83
2019-01-19T06:39:03.706Z,6.77
2019-01-19T06:41:45.050Z,7.40
2019-01-19T06:44:26.480Z,6.80
2019-01-19T06:47:07.157Z,7.70
2019-01-19T06:49:47.862Z,8.00
2019-01-19T06:52:29.256Z,6.90
2019-01-19T06:55:10.289Z,8.03
2019-01-19T06:57:51.289Z,6.80
2019-01-19T07:00:32.443Z,7.30
2019-01-19T07:03:13.485Z,7.67
2019-01-19T07:05:54.398Z,6.77
2019-01-19T07:08:35.205Z,6.73
2019-01-19T07:11:16.075Z,7.37
2019-01-19T07:13:57.382Z,7.47
2019-01-19T07:16:38.166Z,7.47
2019-01-19T07:19:19.094Z,7.00
2019-01-19T07:21:59.958Z,6.87
2019-01-19T07:27:23.438Z,7.87
2019-01-19T07:30:04.524Z,7.53
2019-01-19T07:35:44.146Z,7.53
2019-01-19T07:38:24.661Z,7.77
2019-01-19T07:41:05.987Z,7.10
2019-01-19T07:43:46.649Z,7.30
2019-01-19T07:49:17.133Z,7.40
2019-01-19T07:51:58.420Z,8.13
2019-01-19T07:54:39.821Z,7.17
2019-01-19T07:57:19.286Z,7.70
2019-01-19T07:59:59.850Z,7.80
2019-01-19T08:02:40.432Z,8.20
2019-01-19T08:05:20.904Z,8.13
2019-01-19T08:08:01.417Z,7.07
2019-01-19T08:10:42.391Z,7.97
2019-01-19T08:19:43.452Z,7.00
2019-01-19T08:22:24.348Z,7.07
2019-01-19T08:27:57.574Z,7.33
2019-01-19T08:30:57.237Z,7.47
2019-01-19T08:33:42.861Z,7.23
2019-01-19T08:36:23.747Z,7.90
2019-01-19T08:42:09.504Z,7.30
2019-01-19T08:44:50.950Z,7.93
2019-01-19T08:50:30.525Z,7.87
2019-01-19T08:53:11.736Z,7.53
2019-01-19T08:55:52.871Z,8.30
2019-01-19T09:01:15.780Z,8.20
2019-01-19T09:03:45.148Z,8.27
2019-01-19T09:06:14.616Z,8.80
2019-01-19T09:11:58.691Z,8.50
2019-01-19T09:14:39.997Z,8.10
2019-01-19T09:17:20.787Z,8.30
2019-01-19T09:20:02.206Z,9.13
2019-01-19T09:22:42.962Z,8.83
2019-01-19T09:25:23.806Z,9.60
2019-01-19T09:28:04.700Z,9.07
2019-01-19T09:30:45.653Z,9.40
2019-01-19T09:33:26.240Z,9.30
2019-01-19T09:36:06.765Z,9.20
2019-01-19T09:38:48.088Z,9.43
2019-01-19T09:41:28.997Z,8.83
2019-01-19T09:44:09.829Z,9.57
2019-01-19T09:46:50.564Z,9.33
2019-01-19T09:49:31.521Z,9.87
2019-01-19T09:52:12.190Z,10.20
2019-01-19T09:54:53.075Z,9.10
2019-01-19T09:57:33.899Z,10.17
2019-01-19T10:00:14.887Z,9.90
2019-01-19T10:02:55.761Z,9.97
2019-01-19T10:05:36.320Z,9.10
2019-01-19T10:08:17.145Z,7.87
2019-01-19T10:10:58.451Z,9.47
2019-01-19T10:13:39.423Z,9.80
2019-01-19T10:16:20.312Z,9.50
2019-01-19T10:19:00.855Z,10.33
2019-01-19T10:21:41.474Z,10.60
2019-01-19T10:24:22.271Z,9.43
2019-01-19T10:30:22.530Z,10.93
2019-01-19T10:33:03.281Z,9.90
2019-01-19T10:35:43.928Z,10.07
2019-01-19T10:38:44.213Z,11.03
2019-01-19T10:41:24.747Z,10.30
2019-01-19T10:44:05.585Z,10.53
2019-01-19T10:46:46.583Z,10.40
2019-01-19T10:49:27.791Z,10.87
2019-01-19T10:52:09.083Z,10.70
2019-01-19T10:54:50.472Z,11.33
2019-01-19T10:57:31.183Z,6.30
2019-01-19T11:00:12.411Z,10.60
2019-01-19T11:02:52.910Z,9.53
2019-01-19T11:05:34.023Z,10.23
2019-01-19T11:08:15.188Z,9.13
2019-01-19T11:10:56.506Z,10.57
2019-01-19T11:13:37.333Z,10.17
2019-01-19T11:16:18.659Z,9.47
2019-01-19T11:18:59.416Z,10.47
2019-01-19T11:21:40.208Z,9.70
2019-01-19T11:24:21.432Z,9.93
2019-01-19T11:27:02.549Z,10.13
2019-01-19T11:29:41.655Z,10.07
2019-01-19T11:32:22.566Z,11.33
2019-01-19T11:35:02.975Z,10.20
2019-01-19T11:37:43.918Z,10.17
2019-01-19T11:40:25.488Z,10.13
2019-01-19T11:43:06.176Z,9.17
2019-01-19T11:51:44.876Z,8.57
2019-01-19T11:54:26.247Z,10.00
2019-01-19T11:57:07.599Z,9.30
2019-01-19T11:59:49.276Z,9.20
2019-01-19T12:02:36.992Z,9.10
2019-01-19T12:05:15.778Z,9.37
2019-01-19T12:07:56.796Z,9.47
2019-01-19T12:10:38.127Z,8.37
2019-01-19T12:13:18.658Z,8.93
2019-01-19T12:15:59.198Z,8.53
2019-01-19T12:18:40.131Z,8.37
2019-01-19T12:27:33.302Z,9.13
2019-01-19T12:30:14.585Z,8.83
2019-01-19T12:42:14.369Z,8.43
2019-01-19T12:44:55.785Z,7.97
2019-01-19T12:47:36.767Z,8.63
2019-01-19T12:50:18.021Z,8.83
2019-01-19T12:52:59.394Z,8.60
2019-01-19T12:55:40.238Z,8.20
2019-01-19T12:58:20.872Z,7.90
2019-01-19T13:01:01.711Z,7.40
2019-01-19T13:03:43.143Z,7.77
2019-01-19T13:06:24.499Z,7.57
2019-01-19T13:09:12.324Z,8.00
2019-01-19T13:11:48.139Z,8.10
2019-01-19T13:14:29.754Z,8.27
2019-01-19T13:17:11.488Z,6.27
2019-01-19T13:19:52.673Z,8.50
2019-01-19T13:22:33.924Z,8.20
2019-01-19T13:25:15.181Z,8.07
2019-01-19T13:27:56.202Z,6.53
2019-01-19T13:30:37.456Z,7.83
2019-01-19T13:33:18.232Z,7.43
2019-01-19T13:35:59.614Z,7.27
2019-01-19T13:38:42.096Z,7.10
2019-01-19T13:44:09.452Z,7.40
2019-01-19T13:47:21.242Z,6.73
2019-01-19T13:50:16.124Z,6.27
2019-01-19T13:53:23.422Z,7.23
2019-01-19T13:56:04.126Z,6.87
2019-01-19T13:58:44.712Z,7.53
2019-01-19T14:01:25.821Z,6.63
2019-01-19T14:04:07.104Z,6.70
2019-01-19T14:06:48.110Z,6.50
2019-01-19T14:09:30.171Z,7.43
2019-01-19T14:12:11.571Z,6.80
2019-01-19T14:14:52.443Z,7.07
2019-01-19T14:17:33.841Z,6.90
2019-01-19T14:20:14.609Z,8.10
2019-01-19T14:23:02.189Z,5.63
2019-01-19T14:26:09.518Z,6.27
2019-01-19T14:28:50.673Z,6.63
2019-01-19T14:31:32.053Z,7.20
2019-01-19T14:34:13.181Z,6.23
2019-01-19T14:36:54.639Z,6.80
2019-01-19T14:39:35.954Z,6.37
2019-01-19T14:42:16.655Z,6.40
2019-01-19T14:44:57.570Z,5.97
2019-01-19T14:47:38.781Z,6.00
2019-01-19T14:50:38.489Z,5.27
2019-01-19T14:53:19.803Z,5.90
2019-01-19T14:56:00.778Z,6.40
2019-01-19T14:58:41.482Z,5.83
2019-01-19T15:01:22.123Z,5.90
2019-01-19T15:04:02.793Z,5.60
2019-01-19T15:06:43.625Z,5.70
2019-01-19T15:09:24.114Z,6.33
2019-01-19T15:12:05.197Z,5.77
2019-01-19T15:14:46.627Z,6.00
2019-01-19T15:17:28.158Z,6.00
2019-01-19T15:20:09.474Z,5.73
2019-01-19T15:22:50.324Z,5.70
2019-01-19T15:25:30.958Z,5.47
2019-01-19T15:28:12.060Z,5.10
2019-01-19T15:30:55.838Z,5.57
2019-01-19T15:33:37.303Z,6.57
2019-01-19T15:36:18.838Z,7.73
2019-01-19T15:39:00.360Z,7.80
2019-01-19T15:41:41.709Z,7.60
2019-01-19T15:44:22.558Z,6.10
2019-01-19T15:49:51.000Z,6.67
2019-01-19T15:55:14.644Z,4.53
2019-01-19T15:57:56.236Z,6.70
2019-01-19T16:00:37.390Z,7.93
2019-01-19T16:03:18.317Z,6.90
2019-01-19T16:05:59.248Z,7.03
2019-01-19T16:08:40.206Z,8.30
2019-01-19T16:11:21.631Z,7.30
2019-01-19T16:14:02.414Z,8.37
2019-01-19T16:16:43.630Z,8.27
2019-01-19T16:19:24.577Z,6.90
2019-01-19T16:22:05.698Z,9.73
2019-01-19T16:24:47.164Z,16.50
2019-01-19T16:27:27.683Z,15.00
2019-01-19T16:30:08.366Z,10.40
2019-01-19T16:32:49.738Z,8.30
2019-01-19T16:35:31.000Z,7.73
2019-01-19T16:38:12.446Z,8.10
2019-01-19T16:50:06.111Z,9.43
2019-01-19T16:56:09.604Z,8.77
2019-01-19T16:58:50.705Z,8.93
2019-01-19T17:01:31.295Z,10.90
2019-01-19T17:04:12.426Z,8.77
2019-01-19T17:06:53.897Z,8.97
2019-01-19T17:09:34.759Z,8.27
2019-01-19T17:15:35.377Z,10.17
2019-01-19T17:18:16.024Z,8.17
2019-01-19T17:20:56.425Z,6.67
2019-01-19T17:23:37.279Z,7.00
2019-01-19T17:26:18.388Z,8.77
2019-01-19T17:28:58.930Z,7.43
2019-01-19T17:31:40.429Z,7.57
2019-01-19T17:37:41.516Z,7.80
2019-01-19T17:40:22.388Z,7.60
2019-01-19T17:43:03.756Z,8.77
2019-01-19T17:45:44.413Z,7.60
2019-01-19T17:48:26.280Z,8.80
2019-01-19T17:51:07.938Z,8.70
2019-01-19T17:53:49.503Z,6.83
2019-01-19T17:56:34.799Z,7.87
2019-01-19T17:59:16.095Z,6.87
2019-01-19T18:01:57.386Z,6.80
2019-01-19T18:04:38.555Z,6.50
2019-01-19T18:07:20.000Z,6.67
2019-01-19T18:10:01.398Z,6.93
2019-01-19T18:12:41.914Z,8.47
2019-01-19T18:15:23.155Z,6.97
2019-01-19T18:18:04.165Z,6.33
2019-01-19T18:20:45.010Z,6.53
2019-01-19T18:23:25.582Z,7.10
2019-01-19T18:26:06.427Z,6.67
2019-01-19T18:28:47.909Z,7.60
2019-01-19T18:31:48.660Z,7.10
2019-01-19T18:34:54.609Z,7.27
2019-01-19T18:41:10.302Z,5.63
2019-01-19T18:43:51.418Z,6.20
2019-01-19T18:46:32.474Z,6.17
2019-01-19T18:49:13.350Z,6.17
2019-01-19T18:51:54.761Z,6.20
2019-01-19T18:54:35.298Z,5.67
2019-01-19T18:57:16.922Z,5.87
2019-01-19T18:59:58.658Z,6.13
2019-01-19T19:02:39.776Z,6.10
2019-01-19T19:05:20.331Z,6.00
2019-01-19T19:08:01.080Z,5.77
2019-01-19T19:10:41.644Z,6.03
2019-01-19T19:13:22.433Z,6.70
2019-01-19T19:16:04.023Z,6.50
2019-01-19T19:18:44.977Z,6.50
2019-01-19T19:21:26.417Z,6.33
2019-01-19T19:24:07.066Z,6.40
2019-01-19T19:26:47.890Z,6.13
2019-01-19T19:33:16.925Z,5.50
2019-01-19T19:35:57.619Z,6.43
2019-01-19T19:38:38.997Z,6.27
2019-01-19T19:41:19.525Z,5.57
2019-01-19T19:44:00.646Z,6.20
2019-01-19T19:46:41.891Z,5.90
2019-01-19T19:49:23.266Z,6.73
2019-01-19T19:52:04.232Z,11.97
2019-01-19T19:54:45.289Z,9.80
2019-01-19T19:57:26.000Z,7.40
2019-01-19T20:00:07.011Z,7.00
2019-01-19T20:02:47.766Z,6.00
2019-01-19T20:05:28.419Z,8.03
2019-01-19T20:08:09.594Z,8.33
2019-01-19T20:10:50.263Z,9.30
2019-01-19T20:13:31.127Z,7.10
2019-01-19T20:16:12.469Z,6.53
2019-01-19T20:18:53.933Z,11.60
2019-01-19T20:21:35.365Z,9.50
2019-01-19T20:24:16.721Z,10.37
2019-01-19T20:26:46.316Z,8.67
2019-01-19T20:29:34.674Z,6.13
2019-01-19T20:32:16.019Z,8.37
2019-01-19T20:34:57.401Z,8.07
2019-01-19T20:37:39.106Z,6.40
2019-01-19T20:40:24.447Z,6.70
2019-01-19T20:43:03.315Z,6.73
2019-01-19T20:45:44.057Z,6.90
2019-01-19T20:48:24.706Z,5.10
2019-01-19T20:51:05.498Z,5.83
2019-01-19T20:53:47.042Z,12.30
2019-01-19T20:56:39.962Z,8.50
2019-01-19T20:59:20.438Z,10.27
2019-01-19T21:02:01.839Z,7.43
2019-01-19T21:04:42.890Z,8.60
2019-01-19T21:07:23.727Z,6.40
2019-01-19T21:10:03.390Z,7.63
2019-01-19T21:12:51.645Z,6.43
2019-01-19T21:15:32.486Z,6.10
2019-01-19T21:18:13.289Z,6.43
2019-01-19T21:20:54.737Z,6.43
2019-01-19T21:23:35.224Z,4.90
2019-01-19T21:26:15.954Z,6.67
2019-01-19T21:28:55.322Z,6.00
2019-01-19T21:31:36.250Z,7.63
2019-01-19T21:36:59.423Z,5.23
2019-01-19T21:42:53.415Z,6.00
2019-01-19T21:45:34.039Z,5.67
2019-01-19T21:51:19.731Z,5.83
2019-01-19T21:53:59.061Z,5.67
2019-01-19T21:56:40.217Z,6.00
2019-01-19T21:59:21.472Z,5.83
2019-01-19T22:02:02.096Z,4.87
2019-01-19T22:04:43.165Z,6.10
2019-01-19T22:07:24.622Z,5.77
2019-01-19T22:10:05.193Z,5.83
2019-01-19T22:12:49.126Z,5.73
2019-01-19T22:15:30.463Z,5.30
2019-01-19T22:18:11.050Z,5.43
2019-01-19T22:20:51.973Z,5.30
2019-01-19T22:23:33.498Z,6.03
2019-01-19T22:26:16.174Z,5.63
2019-01-19T22:28:58.974Z,6.00
2019-01-19T22:31:39.745Z,5.47
2019-01-19T22:34:20.502Z,5.57
2019-01-19T22:37:02.031Z,6.67
2019-01-19T22:39:43.286Z,6.07
2019-01-19T22:42:24.687Z,5.80
2019-01-19T22:45:05.394Z,6.63
2019-01-19T22:47:46.528Z,5.13
2019-01-19T22:50:27.036Z,5.90
2019-01-19T22:53:06.428Z,5.70
2019-01-19T22:55:54.974Z,5.63
2019-01-19T22:58:36.134Z,5.77
2019-01-19T23:01:16.756Z,6.17
2019-01-19T23:03:57.972Z,6.70
2019-01-19T23:06:39.139Z,6.50
2019-01-19T23:09:20.220Z,6.30
2019-01-19T23:11:55.915Z,6.67
2019-01-19T23:17:07.635Z,6.30
2019-01-19T23:19:56.046Z,6.03
2019-01-19T23:22:36.649Z,5.70
2019-01-19T23:25:17.262Z,6.33
2019-01-19T23:27:58.207Z,6.40
2019-01-19T23:30:40.034Z,5.43
2019-01-19T23:33:20.987Z,5.50
2019-01-19T23:36:02.216Z,6.63
2019-01-19T23:38:42.697Z,5.77
2019-01-19T23:41:23.775Z,6.00
2019-01-19T23:44:04.870Z,6.07
2019-01-19T23:46:46.091Z,6.10
2019-01-19T23:49:27.382Z,6.20
2019-01-19T23:52:08.884Z,4.50
2019-01-19T23:54:38.359Z,4.33
2019-01-19T23:57:26.737Z,6.40
